16 a 23/11 - Lluvias y tormentas NOA, Cuyo, Cordillera y Patagonia Norte - Actividad más aislada al este

Avatar de Usuario
Ale de Castelar
Mensajes: 26815
Registrado: Sab Mar 03, 2012 12:25 pm
Ubicación: Caballito

Re: 16 a 23/11 - Lluvias y tormentas NOA, Cuyo, Cordillera y Patagonia Norte - Actividad más aislada al este

Mensaje por Ale de Castelar » Sab Nov 21, 2020 8:17 pm

Atardecer en Altas Cumbres Cba


Avatar de Usuario
Diecha
Mensajes: 12409
Registrado: Jue Ago 25, 2011 9:31 pm
Ubicación: Lomas de Zamora

Re: 16 a 23/11 - Lluvias y tormentas NOA, Cuyo, Cordillera y Patagonia Norte - Actividad más aislada al este

Mensaje por Diecha » Sab Nov 21, 2020 8:18 pm

- San Fernando 20 hs: SADF 212300Z 09011KT CAVOK 24/16 Q1015
- Aeroparque 20 hs: SABE 212300Z 11013KT CAVOK 22/16 Q1015
- Ezeiza 20 hs: SAEZ 212300Z 07009KT CAVOK 24/12 Q1015

Imagen
Imagen

Avatar de Usuario
Diecha
Mensajes: 12409
Registrado: Jue Ago 25, 2011 9:31 pm
Ubicación: Lomas de Zamora

Re: 16 a 23/11 - Lluvias y tormentas NOA, Cuyo, Cordillera y Patagonia Norte - Actividad más aislada al este

Mensaje por Diecha » Sab Nov 21, 2020 8:21 pm

Atardecer en Puerto Madryn:
Imagen
Imagen
www.instagram.com/p/CH3vKIYHZNk/

Avatar de Usuario
Ale de Castelar
Mensajes: 26815
Registrado: Sab Mar 03, 2012 12:25 pm
Ubicación: Caballito

Re: 16 a 23/11 - Lluvias y tormentas NOA, Cuyo, Cordillera y Patagonia Norte - Actividad más aislada al este

Mensaje por Ale de Castelar » Sab Nov 21, 2020 9:36 pm

Olavarria




Avatar de Usuario
Ernest
Mensajes: 11609
Registrado: Vie Jul 17, 2009 10:54 pm
Ubicación: Balvanera, CABA

Re: 16 a 23/11 - Lluvias y tormentas NOA, Cuyo, Cordillera y Patagonia Norte - Actividad más aislada al este

Mensaje por Ernest » Sab Nov 21, 2020 9:38 pm

Tremenda noche de calor en Santiago Aero.
Lo loco es que en Termas de Río Hondo tienen 27º, cinco grados menos.

21 hs

1 SANTIAGO DEL ESTERO SANTIAGO DEL ESTERO 32.0 ºC - 32 %
2 RIVADAVIA SALTA 30.3 ºC - 34 %
3 CATAMARCA CATAMARCA 30.2 ºC - 31 %
4 TUCUMAN TUCUMAN 29.1 ºC - 40 %
5 ORAN SALTA 28.7 ºC 29.3 ºC 50 %
6 LAS LOMITAS FORMOSA 28.2 ºC - 40 %
7 CHEPES LA RIOJA 28.0 ºC - 36 %
8 LA RIOJA LA RIOJA 27.6 ºC 27.4 ºC 42 %
9 CHILECITO LA RIOJA 27.4 ºC - 32 %
10 TINOGASTA CATAMARCA 27.2 ºC - 36 %

102 MAQUINCHAO RIO NEGRO 13.8 ºC - 42 %
103 EL BOLSON RIO NEGRO 12.6 ºC - 70 %
104 ESQUEL CHUBUT 12.0 ºC - 63 %
105 GOBERNADOR GREGORES SANTA CRUZ 12.0 ºC - 71 %
106 LA QUIACA OBSERVATORIO JUJUY 11.6 ºC - 69 %
107 CHAPELCO NEUQUEN 11.2 ºC - 68 %
108 RIO GRANDE B.A. TIERRA DEL FUEGO 11.2 ºC - 85 %
109 USHUAIA TIERRA DEL FUEGO 9.6 ºC 6.5 ºC 80 %
110 BARILOCHE RIO NEGRO 9.0 ºC 5.9 ºC 75 %
111 PERITO MORENO SANTA CRUZ 8.6 ºC 3.9 ºC 48 %

En cuanto a las PP en la red oficial, si bien entre las 9 y las 15 apenas algunas estaciones de la PBA llegaron a 2 mm, entre las 15 y las 21 hubo algunos registros más interesantes: 8 mm en Puerto Madryn, 15 mm en Bolívar (muy localizada, en estaciones algo cercanas como Pehuajó no cayó una gota) y 7 mm en Pigüe (sumados a 2 mm entre las 9 y las 15). Otras localidades de la PBA y de la Patagonia tuvieron trazas o 1 mm.
Did you want to talk about the weather, or were you just making chitchat?

Twitter: @ErnestoMeteo




Avatar de Usuario
Diecha
Mensajes: 12409
Registrado: Jue Ago 25, 2011 9:31 pm
Ubicación: Lomas de Zamora

Re: 16 a 23/11 - Lluvias y tormentas NOA, Cuyo, Cordillera y Patagonia Norte - Actividad más aislada al este

Mensaje por Diecha » Sab Nov 21, 2020 11:20 pm

Imagen

Imagen
Spoiler
Mostrar
Imagen
Imagen
Imagen
Imagen
Imagen
Imagen
Imagen
Imagen
Imagen
Imagen
Imagen
Imagen

Avatar de Usuario
Ale de Castelar
Mensajes: 26815
Registrado: Sab Mar 03, 2012 12:25 pm
Ubicación: Caballito

Re: 16 a 23/11 - Lluvias y tormentas NOA, Cuyo, Cordillera y Patagonia Norte - Actividad más aislada al este

Mensaje por Ale de Castelar » Sab Nov 21, 2020 11:55 pm

Tarde ventosa y hongo lenticular en el Lanin


Responder